الصفحة الرئيسية
METAR-TAF:

METAR-TAF

مطار :

Alamosa, كولورادو, الولايات المتحدة

دائرة عرض: 37-26-20N, خط طول: 105-51-41W, ارتفاع: 2297 متر

مراقبة الطقس الحالي

تاريخ ووقت الإصدار 40 دقيقة قبل الساعة 20:52UTC
ريح 3 عقدةمن اتجاهات متغيرة
درجة الحرارة 7°درجة مئوية
الرطوبة 31%
ضغط 1024 hPa
الرؤية: 16.1 كم
غيوم متفرقة على ارتفاع 11000 قدم

METAR: KALS 152052Z AUTO VRB03KT 10SM SCT110 07/M09 A3024 RMK AO2 SLP251 T00721094 56013 $

زمن: 15:32 (21:32 UTC)

توقعات

تاريخ ووقت الإصدار 3ساعات و 53 دقيقة قبل الساعة 17:39UTC
التوقعات صالحة من15 الساعة 18 UTC إلى 16 الساعة 18 UTC
ريح 7 عقدة من الجنوب/الجنوب الشرقي
الرؤية: 10 كم
غيوم متفرقة على ارتفاع 20000 قدم
من 16 الساعة 0200 UTC
ريح 5 عقدةمن اتجاهات متغيرة
الرؤية: 10 كم
غيوم قليلة على ارتفاع 20000 قدم

TAF: KALS 151739Z 1518/1618 16007KT P6SM SCT200 FM160200 VRB05KT P6SM FEW200

أرصاد الطقس والتوقعات من أكثر من 4000 مطار (تقارير الطقس للمطار METAR والتنبؤ بالطقس بالمطارTAF).

المحطات المتاحة هي النقط الصفراء والحمراء على الخريطة.

حرك المؤشر فوق النقطة لمعرفة اسم المحطة.

ثم انقر لمعرفة أرصاد وتوقعات الطقس.

لتغيير الخارطة: اضغط على الأزرار الخضراء مع رمز الصليب الأسود للتكبير. على الزر الأخضر مع شرطة للتصغير، أو على الأسهم الخضراء للخرائط المجاورة.


METAR-TAF: